GLO7481 SGAS-SBGR
Flight info
| Callsign | GLO7481 |
|---|---|
| Flight time | 1h 35m |
| Altitude | 37000 |
| Route | ROLOK UM548 KAMIL UZ28 XONUG UZ121 BUXUK |
| Aircraft | B738/M-SDFGIKLORWXY/LB1 |
Departure
| Time | 2026-04-16 02:32 |
|---|---|
| Airport | Silvio Pettirossi International Airport (SGAS) |
Arrival
| Time | 2026-04-16 04:08 |
|---|---|
| Airport | São Paulo/Guarulhos–Governor André Franco Montoro International Airport (SBGR) |
| Time | Latitude | Longitude | Altitude | Speed | Heading |
|---|---|---|---|---|---|
| 2026-04-16 01:08 | -25.24233 | -57.51555 | 299 ft | 0 kts | 104° |
| 2026-04-16 02:21 | -25.24232 | -57.51556 | 299 ft | 1 kts | 104° |
| 2026-04-16 02:21 | -25.24229 | -57.51571 | 299 ft | 2 kts | 103° |
| 2026-04-16 02:21 | -25.24225 | -57.51587 | 299 ft | 2 kts | 104° |
| 2026-04-16 02:21 | -25.24222 | -57.51603 | 299 ft | 2 kts | 104° |
| 2026-04-16 02:22 | -25.24218 | -57.51619 | 299 ft | 2 kts | 116° |
| 2026-04-16 02:22 | -25.24208 | -57.51631 | 299 ft | 2 kts | 147° |
| 2026-04-16 02:22 | -25.24194 | -57.51638 | 299 ft | 2 kts | 174° |
| 2026-04-16 02:22 | -25.24185 | -57.51638 | 299 ft | 1 kts | 191° |
| 2026-04-16 02:23 | -25.24179 | -57.51636 | 299 ft | 0 kts | 192° |
| 2026-04-16 02:27 | -25.24207 | -57.51643 | 299 ft | 10 kts | 192° |
| 2026-04-16 02:27 | -25.24294 | -57.51667 | 299 ft | 9 kts | 210° |
| 2026-04-16 02:27 | -25.24316 | -57.51718 | 299 ft | 7 kts | 274° |
| 2026-04-16 02:28 | -25.24322 | -57.51758 | 299 ft | 6 kts | 238° |
| 2026-04-16 02:28 | -25.24397 | -57.51797 | 299 ft | 18 kts | 193° |
| 2026-04-16 02:28 | -25.24527 | -57.51829 | 299 ft | 19 kts | 192° |
| 2026-04-16 02:28 | -25.24656 | -57.51859 | 299 ft | 18 kts | 191° |
| 2026-04-16 02:29 | -25.24780 | -57.51888 | 299 ft | 17 kts | 192° |
| 2026-04-16 02:29 | -25.24905 | -57.51919 | 299 ft | 21 kts | 192° |
| 2026-04-16 02:29 | -25.25066 | -57.51957 | 299 ft | 23 kts | 192° |
| 2026-04-16 02:29 | -25.25221 | -57.51996 | 299 ft | 22 kts | 193° |
| 2026-04-16 02:30 | -25.25375 | -57.52033 | 299 ft | 21 kts | 192° |
| 2026-04-16 02:30 | -25.25476 | -57.52070 | 299 ft | 12 kts | 243° |
| 2026-04-16 02:30 | -25.25477 | -57.52160 | 299 ft | 11 kts | 282° |
| 2026-04-16 02:30 | -25.25456 | -57.52242 | 299 ft | 10 kts | 309° |
| 2026-04-16 02:31 | -25.25403 | -57.52259 | 299 ft | 6 kts | 12° |
| 2026-04-16 02:31 | -25.25295 | -57.52231 | 299 ft | 33 kts | 16° |
| 2026-04-16 02:31 | -25.24841 | -57.52122 | 299 ft | 97 kts | 13° |
| 2026-04-16 02:31 | -25.24000 | -57.51917 | 299 ft | 148 kts | 12° |
| 2026-04-16 02:32 | -25.22840 | -57.51630 | 326 ft | 186 kts | 13° |
| 2026-04-16 02:32 | -25.21629 | -57.51323 | 1066 ft | 174 kts | 10° |
| 2026-04-16 02:32 | -25.20425 | -57.51056 | 1494 ft | 187 kts | 8° |
| 2026-04-16 02:32 | -25.19095 | -57.50763 | 1939 ft | 199 kts | 8° |
| 2026-04-16 02:33 | -25.17701 | -57.50434 | 2385 ft | 212 kts | 9° |
| 2026-04-16 02:33 | -25.16214 | -57.50076 | 2844 ft | 224 kts | 8° |
| 2026-04-16 02:33 | -25.14634 | -57.49696 | 3300 ft | 237 kts | 8° |
| 2026-04-16 02:33 | -25.13005 | -57.49191 | 3855 ft | 247 kts | 22° |
| 2026-04-16 02:34 | -25.11682 | -57.47980 | 4524 ft | 255 kts | 51° |
| 2026-04-16 02:34 | -25.10925 | -57.46181 | 5185 ft | 262 kts | 72° |
| 2026-04-16 02:34 | -25.10728 | -57.44178 | 5728 ft | 274 kts | 91° |
| 2026-04-16 02:34 | -25.11246 | -57.42131 | 6211 ft | 289 kts | 119° |
| 2026-04-16 02:35 | -25.12619 | -57.40454 | 6732 ft | 298 kts | 142° |
| 2026-04-16 02:35 | -25.14302 | -57.39113 | 7365 ft | 303 kts | 147° |
| 2026-04-16 02:35 | -25.16070 | -57.37803 | 8029 ft | 307 kts | 145° |
| 2026-04-16 02:35 | -25.17564 | -57.36140 | 8680 ft | 312 kts | 121° |
| 2026-04-16 02:36 | -25.18376 | -57.33931 | 9437 ft | 312 kts | 103° |
| 2026-04-16 02:36 | -25.18831 | -57.31561 | 10077 ft | 317 kts | 99° |
| 2026-04-16 02:36 | -25.19245 | -57.29145 | 10527 ft | 331 kts | 101° |
| 2026-04-16 02:36 | -25.19742 | -57.26629 | 10913 ft | 346 kts | 103° |
| 2026-04-16 02:37 | -25.20342 | -57.23970 | 11266 ft | 362 kts | 105° |
| 2026-04-16 02:37 | -25.20998 | -57.21255 | 11597 ft | 377 kts | 105° |
| 2026-04-16 02:37 | -25.21699 | -57.18428 | 12040 ft | 387 kts | 106° |
| 2026-04-16 02:37 | -25.22424 | -57.15525 | 12595 ft | 394 kts | 106° |
| 2026-04-16 02:38 | -25.23148 | -57.12609 | 13253 ft | 398 kts | 107° |
| 2026-04-16 02:38 | -25.23880 | -57.09654 | 13948 ft | 400 kts | 107° |
| 2026-04-16 02:38 | -25.24617 | -57.06663 | 14572 ft | 406 kts | 107° |
| 2026-04-16 02:38 | -25.25352 | -57.03669 | 15220 ft | 410 kts | 107° |
| 2026-04-16 02:39 | -25.26099 | -57.00619 | 15844 ft | 415 kts | 107° |
| 2026-04-16 02:39 | -25.26859 | -56.97514 | 16455 ft | 420 kts | 107° |
| 2026-04-16 02:39 | -25.27621 | -56.94393 | 17080 ft | 423 kts | 106° |
| 2026-04-16 02:39 | -25.28382 | -56.91274 | 17674 ft | 427 kts | 106° |
| 2026-04-16 02:40 | -25.29159 | -56.88079 | 18295 ft | 431 kts | 106° |
| 2026-04-16 02:40 | -25.29937 | -56.84881 | 18910 ft | 433 kts | 106° |
| 2026-04-16 02:40 | -25.30717 | -56.81671 | 19446 ft | 438 kts | 106° |
| 2026-04-16 02:40 | -25.31508 | -56.78413 | 20032 ft | 441 kts | 106° |
| 2026-04-16 02:41 | -25.32300 | -56.75149 | 20566 ft | 445 kts | 106° |
| 2026-04-16 02:41 | -25.33102 | -56.71841 | 21081 ft | 449 kts | 106° |
| 2026-04-16 02:41 | -25.33913 | -56.68491 | 21634 ft | 451 kts | 106° |
| 2026-04-16 02:41 | -25.34726 | -56.65135 | 22135 ft | 455 kts | 106° |
| 2026-04-16 02:42 | -25.35524 | -56.61773 | 22648 ft | 458 kts | 104° |
| 2026-04-16 02:42 | -25.36175 | -56.58292 | 23073 ft | 464 kts | 100° |
| 2026-04-16 02:42 | -25.36664 | -56.54739 | 23556 ft | 468 kts | 98° |
| 2026-04-16 02:42 | -25.37065 | -56.51182 | 24021 ft | 472 kts | 97° |
| 2026-04-16 02:43 | -25.37433 | -56.47583 | 24531 ft | 475 kts | 96° |
| 2026-04-16 02:43 | -25.37796 | -56.43929 | 24962 ft | 479 kts | 96° |
| 2026-04-16 02:43 | -25.38164 | -56.40274 | 25432 ft | 483 kts | 96° |
| 2026-04-16 02:43 | -25.38544 | -56.36587 | 25910 ft | 486 kts | 96° |
| 2026-04-16 02:44 | -25.38938 | -56.32856 | 26333 ft | 490 kts | 95° |
| 2026-04-16 02:44 | -25.39342 | -56.29116 | 26745 ft | 494 kts | 95° |
| 2026-04-16 02:44 | -25.39754 | -56.25347 | 27154 ft | 497 kts | 95° |
| 2026-04-16 02:44 | -25.40178 | -56.21510 | 27595 ft | 500 kts | 95° |
| 2026-04-16 02:45 | -25.40598 | -56.17733 | 28009 ft | 503 kts | 95° |
| 2026-04-16 02:45 | -25.41028 | -56.13878 | 28356 ft | 507 kts | 95° |
| 2026-04-16 02:45 | -25.41459 | -56.10019 | 28934 ft | 505 kts | 95° |
| 2026-04-16 02:45 | -25.41889 | -56.06171 | 29663 ft | 501 kts | 95° |
| 2026-04-16 02:46 | -25.42309 | -56.02408 | 30234 ft | 499 kts | 95° |
| 2026-04-16 02:46 | -25.42728 | -55.98634 | 30822 ft | 497 kts | 95° |
| 2026-04-16 02:46 | -25.43150 | -55.94823 | 31377 ft | 495 kts | 95° |
| 2026-04-16 02:46 | -25.43566 | -55.91055 | 31920 ft | 493 kts | 94° |
| 2026-04-16 02:47 | -25.43973 | -55.87349 | 32491 ft | 491 kts | 94° |
| 2026-04-16 02:47 | -25.44385 | -55.83608 | 33045 ft | 488 kts | 94° |
| 2026-04-16 02:47 | -25.44791 | -55.79906 | 33570 ft | 486 kts | 94° |
| 2026-04-16 02:47 | -25.45195 | -55.76206 | 34009 ft | 486 kts | 94° |
| 2026-04-16 02:48 | -25.45601 | -55.72473 | 34459 ft | 485 kts | 94° |
| 2026-04-16 02:48 | -25.46006 | -55.68734 | 34916 ft | 484 kts | 94° |
| 2026-04-16 02:48 | -25.46406 | -55.65031 | 35353 ft | 483 kts | 94° |
| 2026-04-16 02:48 | -25.46803 | -55.61344 | 35853 ft | 480 kts | 94° |
| 2026-04-16 02:49 | -25.47193 | -55.57714 | 36258 ft | 479 kts | 94° |
| 2026-04-16 02:49 | -25.47586 | -55.54049 | 36630 ft | 479 kts | 94° |
| 2026-04-16 02:49 | -25.47981 | -55.50352 | 36895 ft | 480 kts | 94° |
| 2026-04-16 02:49 | -25.48372 | -55.46674 | 36912 ft | 484 kts | 94° |
| 2026-04-16 02:50 | -25.49153 | -55.39341 | 36910 ft | 478 kts | 94° |
| 2026-04-16 02:50 | -25.49932 | -55.32001 | 36910 ft | 477 kts | 93° |
| 2026-04-16 02:51 | -25.50704 | -55.24681 | 36909 ft | 479 kts | 93° |
| 2026-04-16 02:51 | -25.51471 | -55.17357 | 36911 ft | 479 kts | 93° |
| 2026-04-16 02:52 | -25.52234 | -55.10051 | 36914 ft | 478 kts | 93° |
| 2026-04-16 02:52 | -25.52992 | -55.02750 | 36920 ft | 480 kts | 93° |
| 2026-04-16 02:53 | -25.53750 | -54.95395 | 36927 ft | 478 kts | 93° |
| 2026-04-16 02:53 | -25.54502 | -54.88067 | 36927 ft | 478 kts | 93° |
| 2026-04-16 02:54 | -25.55251 | -54.80752 | 36935 ft | 477 kts | 93° |
| 2026-04-16 02:54 | -25.55996 | -54.73441 | 36940 ft | 478 kts | 93° |
| 2026-04-16 02:55 | -25.56741 | -54.66082 | 36940 ft | 478 kts | 93° |
| 2026-04-16 02:55 | -25.57487 | -54.58662 | 36939 ft | 487 kts | 93° |
| 2026-04-16 02:56 | -25.58228 | -54.51214 | 36943 ft | 485 kts | 92° |
| 2026-04-16 02:56 | -25.58566 | -54.43696 | 36939 ft | 484 kts | 88° |
| 2026-04-16 02:57 | -25.58588 | -54.36270 | 36940 ft | 484 kts | 86° |
| 2026-04-16 02:57 | -25.58565 | -54.28802 | 36941 ft | 482 kts | 86° |
| 2026-04-16 02:58 | -25.58563 | -54.21358 | 36939 ft | 482 kts | 86° |
| 2026-04-16 02:58 | -25.58585 | -54.13906 | 36941 ft | 484 kts | 86° |
| 2026-04-16 02:59 | -25.58619 | -54.06463 | 36940 ft | 482 kts | 86° |
| 2026-04-16 02:59 | -25.58655 | -53.98976 | 36942 ft | 483 kts | 86° |
| 2026-04-16 03:00 | -25.58688 | -53.91577 | 36952 ft | 481 kts | 86° |
| 2026-04-16 03:00 | -25.58715 | -53.84179 | 36954 ft | 482 kts | 86° |
| 2026-04-16 03:01 | -25.58564 | -53.76776 | 36956 ft | 476 kts | 81° |
| 2026-04-16 03:01 | -25.57595 | -53.69500 | 36963 ft | 474 kts | 75° |
| 2026-04-16 03:02 | -25.56246 | -53.62355 | 36963 ft | 475 kts | 73° |
| 2026-04-16 03:02 | -25.54828 | -53.55197 | 36964 ft | 473 kts | 73° |
| 2026-04-16 03:03 | -25.53431 | -53.48037 | 36964 ft | 474 kts | 74° |
| 2026-04-16 03:03 | -25.52067 | -53.40908 | 36966 ft | 472 kts | 74° |
| 2026-04-16 03:04 | -25.50709 | -53.33751 | 36973 ft | 472 kts | 73° |
| 2026-04-16 03:04 | -25.49369 | -53.26660 | 36984 ft | 472 kts | 74° |
| 2026-04-16 03:05 | -25.48016 | -53.19519 | 36998 ft | 471 kts | 74° |
| 2026-04-16 03:05 | -25.46674 | -53.12450 | 37005 ft | 473 kts | 74° |
| 2026-04-16 03:06 | -25.45307 | -53.05275 | 37011 ft | 473 kts | 74° |
| 2026-04-16 03:07 | -25.43267 | -52.94592 | 37014 ft | 470 kts | 74° |
| 2026-04-16 03:07 | -25.41900 | -52.87485 | 37023 ft | 472 kts | 74° |
| 2026-04-16 03:08 | -25.40526 | -52.80362 | 37029 ft | 470 kts | 74° |
| 2026-04-16 03:08 | -25.39154 | -52.73275 | 37037 ft | 472 kts | 75° |
| 2026-04-16 03:09 | -25.37779 | -52.66189 | 37039 ft | 470 kts | 75° |
| 2026-04-16 03:09 | -25.36399 | -52.59089 | 37045 ft | 471 kts | 75° |
| 2026-04-16 03:10 | -25.35016 | -52.51989 | 37056 ft | 470 kts | 74° |
| 2026-04-16 03:10 | -25.33632 | -52.44904 | 37071 ft | 471 kts | 75° |
| 2026-04-16 03:11 | -25.32249 | -52.37846 | 37080 ft | 471 kts | 75° |
| 2026-04-16 03:11 | -25.30854 | -52.30739 | 37090 ft | 469 kts | 75° |
| 2026-04-16 03:12 | -25.29461 | -52.23652 | 37097 ft | 469 kts | 75° |
| 2026-04-16 03:12 | -25.28074 | -52.16642 | 37098 ft | 469 kts | 75° |
| 2026-04-16 03:13 | -25.26671 | -52.09584 | 37091 ft | 469 kts | 75° |
| 2026-04-16 03:13 | -25.25262 | -52.02496 | 37084 ft | 470 kts | 75° |
| 2026-04-16 03:14 | -25.23851 | -51.95430 | 37083 ft | 469 kts | 75° |
| 2026-04-16 03:14 | -25.22442 | -51.88390 | 37084 ft | 469 kts | 75° |
| 2026-04-16 03:15 | -25.21037 | -51.81387 | 37088 ft | 469 kts | 75° |
| 2026-04-16 03:15 | -25.19615 | -51.74322 | 37089 ft | 468 kts | 75° |
| 2026-04-16 03:16 | -25.18195 | -51.67271 | 37095 ft | 467 kts | 75° |
| 2026-04-16 03:16 | -25.16787 | -51.60304 | 37099 ft | 467 kts | 75° |
| 2026-04-16 03:17 | -25.15367 | -51.53305 | 37100 ft | 467 kts | 75° |
| 2026-04-16 03:17 | -25.13941 | -51.46311 | 37108 ft | 466 kts | 75° |
| 2026-04-16 03:18 | -25.12505 | -51.39289 | 37106 ft | 466 kts | 75° |
| 2026-04-16 03:18 | -25.11080 | -51.32330 | 37103 ft | 466 kts | 75° |
| 2026-04-16 03:19 | -25.09648 | -51.25351 | 37103 ft | 465 kts | 75° |
| 2026-04-16 03:19 | -25.08212 | -51.18371 | 37091 ft | 465 kts | 75° |
| 2026-04-16 03:20 | -25.06776 | -51.11411 | 37073 ft | 464 kts | 75° |
| 2026-04-16 03:20 | -25.05332 | -51.04430 | 37050 ft | 463 kts | 75° |
| 2026-04-16 03:21 | -25.03900 | -50.97522 | 37043 ft | 464 kts | 75° |
| 2026-04-16 03:21 | -25.02447 | -50.90566 | 37056 ft | 464 kts | 75° |
| 2026-04-16 03:22 | -25.00993 | -50.83630 | 37066 ft | 464 kts | 75° |
| 2026-04-16 03:22 | -24.99528 | -50.76655 | 37082 ft | 465 kts | 75° |
| 2026-04-16 03:23 | -24.98069 | -50.69718 | 37088 ft | 464 kts | 75° |
| 2026-04-16 03:23 | -24.96606 | -50.62783 | 37087 ft | 464 kts | 75° |
| 2026-04-16 03:24 | -24.95132 | -50.55804 | 37087 ft | 464 kts | 75° |
| 2026-04-16 03:24 | -24.93673 | -50.48898 | 37088 ft | 464 kts | 75° |
| 2026-04-16 03:25 | -24.92201 | -50.41951 | 37087 ft | 462 kts | 75° |
| 2026-04-16 03:25 | -24.90736 | -50.35055 | 37092 ft | 463 kts | 75° |
| 2026-04-16 03:26 | -24.89246 | -50.28062 | 37097 ft | 463 kts | 75° |
| 2026-04-16 03:26 | -24.87769 | -50.21157 | 37100 ft | 464 kts | 75° |
| 2026-04-16 03:27 | -24.86278 | -50.14207 | 37101 ft | 463 kts | 75° |
| 2026-04-16 03:27 | -24.84795 | -50.07302 | 37101 ft | 463 kts | 75° |
| 2026-04-16 03:28 | -24.83305 | -50.00389 | 37098 ft | 463 kts | 75° |
| 2026-04-16 03:28 | -24.81823 | -49.93525 | 37097 ft | 462 kts | 75° |
| 2026-04-16 03:29 | -24.80318 | -49.86575 | 37107 ft | 466 kts | 75° |
| 2026-04-16 03:29 | -24.78761 | -49.79630 | 37108 ft | 463 kts | 73° |
| 2026-04-16 03:30 | -24.76986 | -49.72772 | 37113 ft | 463 kts | 72° |
| 2026-04-16 03:30 | -24.75164 | -49.66000 | 37108 ft | 463 kts | 72° |
| 2026-04-16 03:31 | -24.73340 | -49.59194 | 37102 ft | 464 kts | 72° |
| 2026-04-16 03:31 | -24.71513 | -49.52326 | 37101 ft | 465 kts | 72° |
| 2026-04-16 03:32 | -24.69715 | -49.45528 | 37094 ft | 464 kts | 72° |
| 2026-04-16 03:34 | -24.62526 | -49.18155 | 37087 ft | 464 kts | 73° |
| 2026-04-16 03:34 | -24.60719 | -49.11329 | 37097 ft | 463 kts | 73° |
| 2026-04-16 03:35 | -24.58883 | -49.04515 | 37100 ft | 463 kts | 73° |
| 2026-04-16 03:35 | -24.57039 | -48.97705 | 37100 ft | 463 kts | 73° |
| 2026-04-16 03:36 | -24.55193 | -48.90892 | 37100 ft | 465 kts | 73° |
| 2026-04-16 03:36 | -24.53346 | -48.84082 | 37100 ft | 466 kts | 72° |
| 2026-04-16 03:37 | -24.51488 | -48.77245 | 37095 ft | 466 kts | 72° |
| 2026-04-16 03:37 | -24.49640 | -48.70423 | 37090 ft | 465 kts | 73° |
| 2026-04-16 03:38 | -24.47798 | -48.63605 | 37083 ft | 468 kts | 73° |
| 2026-04-16 03:38 | -24.45945 | -48.56764 | 37072 ft | 467 kts | 73° |
| 2026-04-16 03:39 | -24.44092 | -48.49936 | 37068 ft | 468 kts | 73° |
| 2026-04-16 03:39 | -24.42225 | -48.43071 | 37067 ft | 467 kts | 73° |
| 2026-04-16 03:40 | -24.40031 | -48.36339 | 37071 ft | 467 kts | 62° |
| 2026-04-16 03:40 | -24.36681 | -48.30266 | 37065 ft | 466 kts | 55° |
| 2026-04-16 03:41 | -24.33001 | -48.24380 | 37067 ft | 466 kts | 54° |
| 2026-04-16 03:41 | -24.29327 | -48.18411 | 37064 ft | 466 kts | 56° |
| 2026-04-16 03:42 | -24.25754 | -48.12408 | 37055 ft | 467 kts | 56° |
| 2026-04-16 03:42 | -24.22260 | -48.06424 | 37050 ft | 466 kts | 57° |
| 2026-04-16 03:42 | -24.20503 | -48.03394 | 36917 ft | 460 kts | 57° |
| 2026-04-16 03:43 | -24.18809 | -48.00465 | 36548 ft | 453 kts | 57° |
| 2026-04-16 03:43 | -24.17132 | -47.97566 | 36031 ft | 453 kts | 56° |
| 2026-04-16 03:43 | -24.15417 | -47.94600 | 35383 ft | 453 kts | 56° |
| 2026-04-16 03:43 | -24.13734 | -47.91691 | 34727 ft | 452 kts | 56° |
| 2026-04-16 03:44 | -24.12050 | -47.88786 | 34043 ft | 452 kts | 56° |
| 2026-04-16 03:44 | -24.10369 | -47.85886 | 33345 ft | 452 kts | 55° |
| 2026-04-16 03:44 | -24.08691 | -47.82992 | 32739 ft | 451 kts | 55° |
| 2026-04-16 03:44 | -24.06984 | -47.80053 | 32302 ft | 459 kts | 55° |
| 2026-04-16 03:45 | -24.05253 | -47.77080 | 31757 ft | 464 kts | 56° |
| 2026-04-16 03:45 | -24.03537 | -47.74131 | 31194 ft | 461 kts | 56° |
| 2026-04-16 03:45 | -24.01823 | -47.71185 | 30627 ft | 458 kts | 56° |
| 2026-04-16 03:45 | -24.00121 | -47.68262 | 30064 ft | 456 kts | 57° |
| 2026-04-16 03:46 | -23.98434 | -47.65366 | 29487 ft | 453 kts | 57° |
| 2026-04-16 03:46 | -23.96731 | -47.62443 | 28911 ft | 451 kts | 57° |
| 2026-04-16 03:46 | -23.95063 | -47.59582 | 28330 ft | 448 kts | 57° |
| 2026-04-16 03:46 | -23.93387 | -47.56706 | 27756 ft | 445 kts | 57° |
| 2026-04-16 03:47 | -23.91739 | -47.53880 | 27191 ft | 442 kts | 57° |
| 2026-04-16 03:47 | -23.90089 | -47.51053 | 26624 ft | 440 kts | 57° |
| 2026-04-16 03:47 | -23.88449 | -47.48246 | 26062 ft | 436 kts | 57° |
| 2026-04-16 03:47 | -23.86827 | -47.45470 | 25501 ft | 434 kts | 57° |
| 2026-04-16 03:48 | -23.85198 | -47.42683 | 24942 ft | 431 kts | 57° |
| 2026-04-16 03:48 | -23.83600 | -47.39951 | 24390 ft | 428 kts | 57° |
| 2026-04-16 03:48 | -23.82004 | -47.37223 | 23834 ft | 425 kts | 57° |
| 2026-04-16 03:48 | -23.80431 | -47.34539 | 23303 ft | 422 kts | 57° |
| 2026-04-16 03:49 | -23.78844 | -47.31831 | 22753 ft | 419 kts | 57° |
| 2026-04-16 03:49 | -23.77277 | -47.29158 | 22208 ft | 417 kts | 57° |
| 2026-04-16 03:49 | -23.75724 | -47.26511 | 21668 ft | 415 kts | 57° |
| 2026-04-16 03:49 | -23.74182 | -47.23885 | 21137 ft | 412 kts | 57° |
| 2026-04-16 03:50 | -23.72624 | -47.21231 | 20578 ft | 410 kts | 57° |
| 2026-04-16 03:50 | -23.71101 | -47.18640 | 20033 ft | 408 kts | 57° |
| 2026-04-16 03:50 | -23.69570 | -47.16036 | 19480 ft | 405 kts | 57° |
| 2026-04-16 03:50 | -23.68046 | -47.13445 | 18931 ft | 403 kts | 57° |
| 2026-04-16 03:51 | -23.66552 | -47.10905 | 18472 ft | 397 kts | 57° |
| 2026-04-16 03:51 | -23.65068 | -47.08382 | 17951 ft | 394 kts | 57° |
| 2026-04-16 03:51 | -23.63597 | -47.05882 | 17421 ft | 392 kts | 57° |
| 2026-04-16 03:51 | -23.62133 | -47.03396 | 16888 ft | 389 kts | 57° |
| 2026-04-16 03:52 | -23.60677 | -47.00927 | 16361 ft | 385 kts | 57° |
| 2026-04-16 03:52 | -23.59230 | -46.98477 | 15829 ft | 382 kts | 57° |
| 2026-04-16 03:52 | -23.57805 | -46.96070 | 15295 ft | 379 kts | 57° |
| 2026-04-16 03:52 | -23.56371 | -46.93648 | 14743 ft | 376 kts | 57° |
| 2026-04-16 03:53 | -23.54978 | -46.91295 | 14209 ft | 373 kts | 57° |
| 2026-04-16 03:53 | -23.53571 | -46.88917 | 13666 ft | 369 kts | 57° |
| 2026-04-16 03:53 | -23.52196 | -46.86594 | 13248 ft | 362 kts | 57° |
| 2026-04-16 03:53 | -23.50848 | -46.84318 | 13053 ft | 348 kts | 57° |
| 2026-04-16 03:54 | -23.49577 | -46.82172 | 12947 ft | 332 kts | 57° |
| 2026-04-16 03:54 | -23.48347 | -46.80092 | 12851 ft | 318 kts | 57° |
| 2026-04-16 03:54 | -23.47179 | -46.78118 | 12743 ft | 305 kts | 57° |
| 2026-04-16 03:54 | -23.46050 | -46.76210 | 12637 ft | 293 kts | 57° |
| 2026-04-16 03:55 | -23.44966 | -46.74375 | 12537 ft | 282 kts | 58° |
| 2026-04-16 03:55 | -23.44100 | -46.72524 | 12527 ft | 266 kts | 71° |
| 2026-04-16 03:55 | -23.43863 | -46.70600 | 12516 ft | 253 kts | 99° |
| 2026-04-16 03:55 | -23.44488 | -46.68807 | 12316 ft | 256 kts | 124° |
| 2026-04-16 03:56 | -23.45680 | -46.67397 | 12026 ft | 255 kts | 136° |
| 2026-04-16 03:56 | -23.46997 | -46.66088 | 11719 ft | 254 kts | 135° |
| 2026-04-16 03:56 | -23.48278 | -46.64782 | 11417 ft | 253 kts | 135° |
| 2026-04-16 03:56 | -23.49562 | -46.63456 | 11123 ft | 252 kts | 135° |
| 2026-04-16 03:57 | -23.50825 | -46.62151 | 10831 ft | 250 kts | 135° |
| 2026-04-16 03:57 | -23.52103 | -46.60833 | 10537 ft | 249 kts | 135° |
| 2026-04-16 03:57 | -23.53358 | -46.59541 | 10247 ft | 247 kts | 135° |
| 2026-04-16 03:57 | -23.54601 | -46.58263 | 9957 ft | 246 kts | 135° |
| 2026-04-16 03:58 | -23.55874 | -46.56952 | 9402 ft | 257 kts | 135° |
| 2026-04-16 03:58 | -23.57162 | -46.55626 | 9227 ft | 248 kts | 135° |
| 2026-04-16 03:58 | -23.58386 | -46.54299 | 8832 ft | 252 kts | 129° |
| 2026-04-16 03:58 | -23.59240 | -46.52672 | 8508 ft | 247 kts | 102° |
| 2026-04-16 03:59 | -23.59200 | -46.50869 | 8499 ft | 230 kts | 71° |
| 2026-04-16 03:59 | -23.58471 | -46.49320 | 8346 ft | 232 kts | 54° |
| 2026-04-16 03:59 | -23.57316 | -46.48138 | 8082 ft | 232 kts | 29° |
| 2026-04-16 03:59 | -23.55761 | -46.47701 | 7850 ft | 233 kts | 1° |
| 2026-04-16 04:00 | -23.54156 | -46.48009 | 7594 ft | 235 kts | 341° |
| 2026-04-16 04:00 | -23.52763 | -46.48973 | 7327 ft | 238 kts | 312° |
| 2026-04-16 04:00 | -23.51983 | -46.50559 | 7080 ft | 240 kts | 284° |
| 2026-04-16 04:00 | -23.51722 | -46.52341 | 6815 ft | 240 kts | 278° |
| 2026-04-16 04:01 | -23.51519 | -46.54154 | 6550 ft | 240 kts | 278° |
| 2026-04-16 04:01 | -23.51303 | -46.55946 | 6290 ft | 239 kts | 279° |
| 2026-04-16 04:01 | -23.50888 | -46.57675 | 6100 ft | 231 kts | 303° |
| 2026-04-16 04:01 | -23.49814 | -46.58830 | 6146 ft | 211 kts | 334° |
| 2026-04-16 04:02 | -23.48432 | -46.59381 | 6174 ft | 208 kts | 352° |
| 2026-04-16 04:02 | -23.46994 | -46.59502 | 6174 ft | 205 kts | 7° |
| 2026-04-16 04:02 | -23.45639 | -46.59079 | 6175 ft | 202 kts | 33° |
| 2026-04-16 04:02 | -23.44558 | -46.58098 | 6177 ft | 201 kts | 51° |
| 2026-04-16 04:03 | -23.43796 | -46.56831 | 6174 ft | 199 kts | 69° |
| 2026-04-16 04:03 | -23.43533 | -46.55366 | 6175 ft | 198 kts | 91° |
| 2026-04-16 04:03 | -23.43851 | -46.53895 | 6177 ft | 200 kts | 108° |
| 2026-04-16 04:03 | -23.44169 | -46.52432 | 6170 ft | 199 kts | 92° |
| 2026-04-16 04:04 | -23.44059 | -46.50919 | 6174 ft | 199 kts | 78° |
| 2026-04-16 04:04 | -23.43729 | -46.49469 | 6173 ft | 199 kts | 74° |
| 2026-04-16 04:04 | -23.43371 | -46.48003 | 6081 ft | 199 kts | 83° |
| 2026-04-16 04:04 | -23.43569 | -46.46571 | 5926 ft | 190 kts | 117° |
| 2026-04-16 04:05 | -23.44506 | -46.45574 | 5569 ft | 197 kts | 154° |
| 2026-04-16 04:05 | -23.45873 | -46.45392 | 5179 ft | 204 kts | 191° |
| 2026-04-16 04:05 | -23.47094 | -46.46133 | 4799 ft | 204 kts | 227° |
| 2026-04-16 04:05 | -23.47694 | -46.47462 | 4438 ft | 194 kts | 257° |
| 2026-04-16 04:06 | -23.47871 | -46.48854 | 4223 ft | 177 kts | 264° |
| 2026-04-16 04:06 | -23.47739 | -46.50108 | 3973 ft | 163 kts | 299° |
| 2026-04-16 04:06 | -23.46968 | -46.50957 | 3962 ft | 163 kts | 330° |
| 2026-04-16 04:06 | -23.45882 | -46.51325 | 3896 ft | 164 kts | 0° |
| 2026-04-16 04:07 | -23.44799 | -46.51016 | 3429 ft | 165 kts | 34° |
| 2026-04-16 04:07 | -23.43608 | -46.49034 | 2595 ft | 152 kts | 78° |
| 2026-04-16 04:07 | -23.43343 | -46.47986 | 2459 ft | 139 kts | 75° |
| 2026-04-16 04:08 | -23.42922 | -46.47282 | 2444 ft | 0 kts | 40° |